createdAt,value
2022-11-11T00:02:04.448Z,5.67
2022-11-11T00:04:32.030Z,5.75
2022-11-11T00:06:59.662Z,5.79
2022-11-11T00:09:27.290Z,5.72
2022-11-11T00:11:56.218Z,5.73
2022-11-11T00:14:24.146Z,5.81
2022-11-11T00:17:09.147Z,5.81
2022-11-11T00:19:54.862Z,5.83
2022-11-11T00:22:41.155Z,5.84
2022-11-11T00:25:09.833Z,5.89
2022-11-11T00:27:40.353Z,5.86
2022-11-11T00:30:09.350Z,5.77
2022-11-11T00:32:36.875Z,5.86
2022-11-11T00:35:22.439Z,5.78
2022-11-11T00:37:50.157Z,5.83
2022-11-11T00:40:18.074Z,5.85
2022-11-11T00:42:46.936Z,5.87
2022-11-11T00:45:14.569Z,5.88
2022-11-11T00:47:59.886Z,5.83
2022-11-11T00:50:47.427Z,5.84
2022-11-11T00:53:19.339Z,5.88
2022-11-11T00:55:49.573Z,5.86
2022-11-11T00:58:18.551Z,5.88
2022-11-11T01:00:46.791Z,5.82
2022-11-11T01:03:14.446Z,5.91
2022-11-11T01:05:42.121Z,5.84
2022-11-11T01:08:09.720Z,5.91
2022-11-11T01:10:42.071Z,5.90
2022-11-11T01:13:18.625Z,5.87
2022-11-11T01:15:48.475Z,5.89
2022-11-11T01:18:17.758Z,5.85
2022-11-11T01:20:45.844Z,5.78
2022-11-11T01:23:14.630Z,5.84
2022-11-11T01:25:43.345Z,5.84
2022-11-11T01:28:11.091Z,5.88
2022-11-11T01:30:40.004Z,5.93
2022-11-11T01:33:07.741Z,5.91
2022-11-11T01:35:39.660Z,5.96
2022-11-11T01:38:08.188Z,5.94
2022-11-11T01:40:42.146Z,5.95
2022-11-11T01:43:21.778Z,5.84
2022-11-11T01:45:54.759Z,5.83
2022-11-11T01:49:02.042Z,5.76
2022-11-11T01:51:35.561Z,5.72
2022-11-11T01:54:06.589Z,5.82
2022-11-11T01:56:34.953Z,5.77
2022-11-11T01:59:05.800Z,5.75
2022-11-11T02:01:36.131Z,5.78
2022-11-11T02:04:23.657Z,5.81
2022-11-11T02:06:53.878Z,5.75
2022-11-11T02:09:22.912Z,5.77
2022-11-11T02:12:08.756Z,5.81
2022-11-11T02:14:43.041Z,5.77
2022-11-11T02:17:14.678Z,5.86
2022-11-11T02:19:50.150Z,5.77
2022-11-11T02:22:25.675Z,5.84
2022-11-11T02:24:55.591Z,5.84
2022-11-11T02:27:24.181Z,5.73
2022-11-11T02:29:54.803Z,5.76
2022-11-11T02:32:22.588Z,5.80
2022-11-11T02:34:50.363Z,5.80
2022-11-11T02:37:21.410Z,5.76
2022-11-11T02:40:03.278Z,5.68
2022-11-11T02:42:35.199Z,5.73
2022-11-11T02:45:02.902Z,5.80
2022-11-11T02:47:30.550Z,5.83
2022-11-11T02:49:58.176Z,5.74
2022-11-11T02:52:25.915Z,5.77
2022-11-11T02:54:53.638Z,5.67
2022-11-11T02:57:21.516Z,5.79
2022-11-11T02:59:50.451Z,5.75
2022-11-11T03:02:18.084Z,5.66
2022-11-11T03:04:45.852Z,5.63
2022-11-11T03:07:13.627Z,5.67
2022-11-11T03:09:41.199Z,5.75
2022-11-11T03:12:09.007Z,5.67
2022-11-11T03:14:36.831Z,5.59
2022-11-11T03:17:23.498Z,5.56
2022-11-11T03:19:51.320Z,5.65
2022-11-11T03:25:23.412Z,5.60
2022-11-11T03:27:50.962Z,5.58
2022-11-11T03:30:18.701Z,5.71
2022-11-11T03:32:47.571Z,5.59
2022-11-11T03:35:15.150Z,5.70
2022-11-11T03:38:00.307Z,5.58
2022-11-11T03:40:27.983Z,5.60
2022-11-11T03:43:00.997Z,5.54
2022-11-11T03:45:31.578Z,5.54
2022-11-11T03:48:00.565Z,5.58
2022-11-11T03:50:28.283Z,5.54
2022-11-11T03:52:55.913Z,5.62
2022-11-11T03:55:23.456Z,5.47
2022-11-11T03:57:51.032Z,5.52
2022-11-11T04:00:20.937Z,5.51
2022-11-11T04:03:06.236Z,5.44
2022-11-11T04:05:52.856Z,5.49
2022-11-11T04:08:38.697Z,5.51
2022-11-11T04:11:08.635Z,5.47
2022-11-11T04:13:54.158Z,5.43
2022-11-11T04:16:21.835Z,5.46
2022-11-11T04:19:07.160Z,5.47
2022-11-11T04:21:45.276Z,5.40
2022-11-11T04:24:42.738Z,5.57
2022-11-11T04:27:11.553Z,5.40
2022-11-11T04:29:38.274Z,5.50
2022-11-11T04:32:25.477Z,5.50
2022-11-11T04:34:54.611Z,5.47
2022-11-11T04:37:24.557Z,5.46
2022-11-11T04:40:10.417Z,5.45
2022-11-11T04:42:39.319Z,5.49
2022-11-11T04:45:25.402Z,5.47
2022-11-11T04:47:57.412Z,5.45
2022-11-11T04:50:25.941Z,5.48
2022-11-11T04:52:54.880Z,5.48
2022-11-11T04:55:40.251Z,5.42
2022-11-11T04:58:07.875Z,5.40
2022-11-11T05:00:35.653Z,5.45
2022-11-11T05:03:18.297Z,5.44
2022-11-11T05:06:04.748Z,5.40
2022-11-11T05:08:51.803Z,5.49
2022-11-11T05:11:19.677Z,5.35
2022-11-11T05:14:05.141Z,5.37
2022-11-11T05:16:52.608Z,5.36
2022-11-11T05:19:37.801Z,5.31
2022-11-11T05:22:10.380Z,5.27
2022-11-11T05:24:57.028Z,5.34
2022-11-11T05:27:24.622Z,5.33
2022-11-11T05:29:52.180Z,5.41
2022-11-11T05:32:20.415Z,5.42
2022-11-11T05:34:48.283Z,5.45
2022-11-11T05:37:16.316Z,5.40
2022-11-11T05:39:45.992Z,5.38
2022-11-11T05:42:13.913Z,5.36
2022-11-11T05:44:41.575Z,5.30
2022-11-11T05:47:09.362Z,5.33
2022-11-11T05:49:37.087Z,5.44
2022-11-11T05:52:05.751Z,5.45
2022-11-11T05:54:33.467Z,5.47
2022-11-11T05:57:03.561Z,5.46
2022-11-11T05:59:31.356Z,5.45
2022-11-11T06:01:59.080Z,5.40
2022-11-11T06:04:27.499Z,5.46
2022-11-11T06:06:55.194Z,5.40
2022-11-11T06:09:22.791Z,5.45
2022-11-11T06:11:50.359Z,5.41
2022-11-11T06:14:19.285Z,5.42
2022-11-11T06:16:46.851Z,5.37
2022-11-11T06:19:14.407Z,5.32
2022-11-11T06:22:01.983Z,5.31
2022-11-11T06:24:29.660Z,5.34
2022-11-11T06:26:56.411Z,5.15
2022-11-11T06:29:25.316Z,5.20
2022-11-11T06:31:52.906Z,5.19
2022-11-11T06:34:20.634Z,5.10
2022-11-11T06:36:48.206Z,5.13
2022-11-11T06:39:15.779Z,5.12
2022-11-11T06:41:43.313Z,5.04
2022-11-11T06:44:10.837Z,5.04
2022-11-11T06:46:39.790Z,4.96
2022-11-11T06:49:07.346Z,4.83
2022-11-11T06:51:34.871Z,5.00
2022-11-11T06:54:02.478Z,4.93
2022-11-11T06:56:30.027Z,4.95
2022-11-11T06:58:57.631Z,5.05
2022-11-11T07:01:25.200Z,4.97
2022-11-11T07:03:54.173Z,5.10
2022-11-11T07:06:21.802Z,5.06
2022-11-11T07:08:49.328Z,5.02
2022-11-11T07:11:19.208Z,4.96
2022-11-11T07:13:47.038Z,4.82
2022-11-11T07:16:14.604Z,5.03
2022-11-11T07:18:42.115Z,5.00
2022-11-11T07:21:11.063Z,4.94
2022-11-11T07:23:38.666Z,4.99
2022-11-11T07:26:06.548Z,4.93
2022-11-11T07:28:34.061Z,5.20
2022-11-11T07:31:01.646Z,5.14
2022-11-11T07:33:29.219Z,5.27
2022-11-11T07:35:56.833Z,5.30
2022-11-11T07:38:26.085Z,5.14
2022-11-11T07:40:53.918Z,5.11
2022-11-11T07:43:21.470Z,5.11
2022-11-11T07:45:49.014Z,5.31
2022-11-11T07:48:16.687Z,5.19
2022-11-11T07:50:44.317Z,5.16
2022-11-11T07:53:11.887Z,5.16
2022-11-11T07:55:41.183Z,5.10
2022-11-11T07:58:08.760Z,5.25
2022-11-11T08:00:36.518Z,5.11
2022-11-11T08:03:08.230Z,5.25
2022-11-11T08:05:36.349Z,5.19
2022-11-11T08:08:05.300Z,5.32
2022-11-11T08:10:32.982Z,5.26
2022-11-11T08:13:19.678Z,5.19
2022-11-11T08:15:47.650Z,5.28
2022-11-11T08:18:15.625Z,5.22
2022-11-11T08:20:46.467Z,5.37
2022-11-11T08:26:09.662Z,5.48
2022-11-11T08:28:38.612Z,5.28
2022-11-11T08:31:06.344Z,5.25
2022-11-11T08:33:35.119Z,5.30
2022-11-11T08:36:03.169Z,5.29
2022-11-11T08:38:30.909Z,5.26
2022-11-11T08:41:01.251Z,5.36
2022-11-11T08:43:36.808Z,5.29
2022-11-11T08:46:06.782Z,5.35
2022-11-11T08:48:34.763Z,5.41
2022-11-11T08:51:02.423Z,5.26
2022-11-11T08:53:30.258Z,5.40
2022-11-11T08:55:57.890Z,5.49
2022-11-11T08:58:25.538Z,5.58
2022-11-11T09:00:53.183Z,5.72
2022-11-11T09:03:22.248Z,5.72
2022-11-11T09:05:50.377Z,5.85
2022-11-11T09:08:17.940Z,5.81
2022-11-11T09:10:45.485Z,5.97
2022-11-11T09:13:13.220Z,6.10
2022-11-11T09:15:40.723Z,6.18
2022-11-11T09:18:09.003Z,6.24
2022-11-11T09:20:38.259Z,6.33
2022-11-11T09:23:05.813Z,6.32
2022-11-11T09:25:33.383Z,6.43
2022-11-11T09:28:02.481Z,6.46
2022-11-11T09:30:30.760Z,6.59
2022-11-11T09:33:02.773Z,6.60
2022-11-11T09:35:30.484Z,6.63
2022-11-11T09:38:00.698Z,6.69
2022-11-11T09:40:34.315Z,6.73
2022-11-11T09:43:07.710Z,6.73
2022-11-11T09:45:42.030Z,6.69
2022-11-11T09:48:25.536Z,6.60
2022-11-11T09:50:56.226Z,6.58
2022-11-11T09:53:29.888Z,6.63
2022-11-11T09:55:59.811Z,6.65
2022-11-11T09:58:30.817Z,6.79
2022-11-11T10:01:02.370Z,6.67
2022-11-11T10:03:31.710Z,6.87
2022-11-11T10:06:02.539Z,6.81
2022-11-11T10:08:36.475Z,6.89
2022-11-11T10:11:06.211Z,7.03
2022-11-11T10:13:35.128Z,7.03
2022-11-11T10:16:05.936Z,7.03
2022-11-11T10:18:50.455Z,7.07
2022-11-11T10:21:26.486Z,7.21
2022-11-11T10:23:57.074Z,7.18
2022-11-11T10:26:30.898Z,7.16
2022-11-11T10:28:59.659Z,7.06
2022-11-11T10:31:28.297Z,7.22
2022-11-11T10:33:59.874Z,7.18
2022-11-11T10:36:31.718Z,7.02
2022-11-11T10:39:06.348Z,7.16
2022-11-11T10:41:37.720Z,7.13
2022-11-11T10:44:20.243Z,7.16
2022-11-11T10:46:54.086Z,7.20
2022-11-11T10:49:23.054Z,7.25
2022-11-11T10:51:54.793Z,7.29
2022-11-11T10:54:27.132Z,7.19
2022-11-11T10:56:59.909Z,7.17
2022-11-11T10:59:32.449Z,7.23
2022-11-11T11:02:03.123Z,7.17
2022-11-11T11:04:34.170Z,7.04
2022-11-11T11:07:03.094Z,7.23
2022-11-11T11:09:39.056Z,7.32
2022-11-11T11:12:10.818Z,7.31
2022-11-11T11:14:40.991Z,7.35
2022-11-11T11:17:13.638Z,7.17
2022-11-11T11:19:41.401Z,7.39
2022-11-11T11:22:08.987Z,7.35
2022-11-11T11:24:43.721Z,7.21
2022-11-11T11:27:11.892Z,7.08
2022-11-11T11:29:42.206Z,7.07
2022-11-11T11:32:15.256Z,7.19
2022-11-11T11:34:48.811Z,7.35
2022-11-11T11:37:16.976Z,7.28
2022-11-11T11:39:46.474Z,7.17
2022-11-11T11:42:34.033Z,7.06
2022-11-11T11:45:23.701Z,7.15
2022-11-11T11:48:29.057Z,6.96
2022-11-11T11:50:51.278Z,7.01
2022-11-11T11:53:35.777Z,7.12
2022-11-11T11:56:21.551Z,7.13
2022-11-11T11:58:58.593Z,7.14
2022-11-11T12:01:33.656Z,7.07
2022-11-11T12:04:29.345Z,7.24
2022-11-11T12:07:04.913Z,7.28
2022-11-11T12:09:40.145Z,7.36
2022-11-11T12:12:15.292Z,7.38
2022-11-11T12:14:53.922Z,7.27
2022-11-11T12:17:30.929Z,7.25
2022-11-11T12:20:05.468Z,7.17
2022-11-11T12:22:43.252Z,7.08
2022-11-11T12:25:19.282Z,7.22
2022-11-11T12:27:58.039Z,7.21
2022-11-11T12:30:29.049Z,7.07
2022-11-11T12:33:13.233Z,7.13
2022-11-11T12:35:50.281Z,7.02
2022-11-11T12:38:28.031Z,7.12
2022-11-11T12:41:03.688Z,7.17
2022-11-11T12:43:37.793Z,7.23
2022-11-11T12:46:09.627Z,7.23
2022-11-11T12:48:52.838Z,7.34
2022-11-11T12:51:31.426Z,7.34
2022-11-11T12:54:04.080Z,7.19
2022-11-11T12:56:37.861Z,7.34
2022-11-11T12:59:14.119Z,7.30
2022-11-11T13:01:52.130Z,7.40
2022-11-11T13:04:34.898Z,7.39
2022-11-11T13:07:33.821Z,7.48
2022-11-11T13:10:13.631Z,7.54
2022-11-11T13:12:45.510Z,7.42
2022-11-11T13:15:17.323Z,7.42
2022-11-11T13:17:45.268Z,7.37
2022-11-11T13:20:22.366Z,7.39
2022-11-11T13:22:51.013Z,7.40
2022-11-11T13:25:23.163Z,7.38
2022-11-11T13:27:54.201Z,7.29
2022-11-11T13:30:58.142Z,7.40
2022-11-11T13:33:36.625Z,7.42
2022-11-11T13:36:12.986Z,7.24
2022-11-11T13:38:46.666Z,7.28
2022-11-11T13:41:20.066Z,7.35
2022-11-11T13:43:50.147Z,7.35
2022-11-11T13:46:33.434Z,7.44
2022-11-11T13:49:04.402Z,7.55
2022-11-11T13:51:36.611Z,7.50
2022-11-11T13:54:07.402Z,7.36
2022-11-11T13:56:40.503Z,7.33
2022-11-11T13:59:09.185Z,7.32
2022-11-11T14:01:42.560Z,7.42
2022-11-11T14:04:13.087Z,7.31
2022-11-11T14:06:55.469Z,7.24
2022-11-11T14:10:01.464Z,7.10
2022-11-11T14:12:41.380Z,7.10
2022-11-11T14:15:37.910Z,7.02
2022-11-11T14:18:10.548Z,7.05
2022-11-11T14:20:42.510Z,7.05
2022-11-11T14:23:27.088Z,7.06
2022-11-11T14:26:26.848Z,7.06
2022-11-11T14:28:57.395Z,7.02
2022-11-11T14:32:13.145Z,7.08
2022-11-11T14:34:59.961Z,7.05
2022-11-11T14:37:48.742Z,7.17
2022-11-11T14:40:30.395Z,7.15
2022-11-11T14:43:02.725Z,7.20
2022-11-11T14:46:05.525Z,6.96
2022-11-11T14:48:56.719Z,7.00
2022-11-11T14:51:45.920Z,7.14
2022-11-11T14:54:23.950Z,7.10
2022-11-11T14:57:02.953Z,7.20
2022-11-11T14:59:32.070Z,7.15
2022-11-11T15:02:01.077Z,7.17
2022-11-11T15:04:29.795Z,7.20
2022-11-11T15:07:01.667Z,7.09
2022-11-11T15:10:01.370Z,7.04
2022-11-11T15:12:39.941Z,7.10
2022-11-11T15:15:14.623Z,7.02
2022-11-11T15:17:51.693Z,6.96
2022-11-11T15:20:44.108Z,6.89
2022-11-11T15:23:19.853Z,6.85
2022-11-11T15:25:54.739Z,6.87
2022-11-11T15:28:41.028Z,6.94
2022-11-11T15:31:19.127Z,6.96
2022-11-11T15:33:54.807Z,6.93
2022-11-11T15:36:33.268Z,6.86
2022-11-11T15:39:06.548Z,6.82
2022-11-11T15:41:41.309Z,6.79
2022-11-11T15:44:16.494Z,6.84
2022-11-11T15:46:45.058Z,6.71
2022-11-11T15:49:16.395Z,6.78
2022-11-11T15:51:44.112Z,6.64
2022-11-11T15:54:18.924Z,6.54
2022-11-11T15:56:47.988Z,6.61
2022-11-11T15:59:20.430Z,6.42
2022-11-11T16:01:48.317Z,6.44
2022-11-11T16:04:53.256Z,6.52
2022-11-11T16:07:06.579Z,6.43
2022-11-11T16:09:34.616Z,6.51
2022-11-11T16:12:04.093Z,6.45
2022-11-11T16:14:36.652Z,6.50
2022-11-11T16:17:04.555Z,6.58
2022-11-11T16:19:35.148Z,6.47
2022-11-11T16:22:06.225Z,6.53
2022-11-11T16:24:35.291Z,6.54
2022-11-11T16:27:06.051Z,6.50
2022-11-11T16:29:35.762Z,6.50
2022-11-11T16:32:03.705Z,6.44
2022-11-11T16:34:36.149Z,6.42
2022-11-11T16:37:05.287Z,6.48
2022-11-11T16:39:33.922Z,6.48
2022-11-11T16:42:03.397Z,6.41
2022-11-11T16:44:35.799Z,6.27
2022-11-11T16:47:05.725Z,6.17
2022-11-11T16:49:34.835Z,6.13
2022-11-11T16:52:09.744Z,6.20
2022-11-11T16:54:39.259Z,6.31
2022-11-11T16:57:07.647Z,6.35
2022-11-11T16:59:40.638Z,6.29
2022-11-11T17:02:16.785Z,6.28
2022-11-11T17:04:48.143Z,6.28
2022-11-11T17:07:30.371Z,6.22
2022-11-11T17:10:17.018Z,6.21
2022-11-11T17:12:44.920Z,6.29
2022-11-11T17:15:15.263Z,6.26
2022-11-11T17:17:44.346Z,6.19
2022-11-11T17:20:14.188Z,6.16
2022-11-11T17:22:48.549Z,6.14
2022-11-11T17:25:16.292Z,6.22
2022-11-11T17:27:44.913Z,6.08
2022-11-11T17:30:15.043Z,6.02
2022-11-11T17:32:42.646Z,6.10
2022-11-11T17:35:11.898Z,6.13
2022-11-11T17:37:40.218Z,6.25
2022-11-11T17:40:10.055Z,6.15
2022-11-11T17:42:38.498Z,6.04
2022-11-11T17:45:08.657Z,5.99
2022-11-11T17:47:43.465Z,6.01
2022-11-11T17:50:14.181Z,6.02
2022-11-11T17:52:42.974Z,6.02
2022-11-11T17:55:12.046Z,5.93
2022-11-11T17:57:39.674Z,5.98
2022-11-11T18:00:08.416Z,6.08
2022-11-11T18:02:37.963Z,6.06
2022-11-11T18:05:06.603Z,6.06
2022-11-11T18:07:34.638Z,6.00
2022-11-11T18:10:02.723Z,6.05
2022-11-11T18:12:30.684Z,6.08
2022-11-11T18:14:58.225Z,5.95
2022-11-11T18:17:25.889Z,5.97
2022-11-11T18:19:55.140Z,5.96
2022-11-11T18:22:22.768Z,5.99
2022-11-11T18:24:50.360Z,5.83
2022-11-11T18:27:18.128Z,5.92
2022-11-11T18:29:45.699Z,5.98
2022-11-11T18:32:13.731Z,6.01
2022-11-11T18:34:41.386Z,5.91
2022-11-11T18:37:10.292Z,5.89
2022-11-11T18:39:37.930Z,5.88
2022-11-11T18:42:05.779Z,5.91
2022-11-11T18:44:33.431Z,5.96
2022-11-11T18:47:01.042Z,5.95
2022-11-11T18:49:28.614Z,5.90
2022-11-11T18:51:56.310Z,5.94
2022-11-11T18:54:30.172Z,5.98
2022-11-11T18:56:58.420Z,5.96
2022-11-11T18:59:26.058Z,5.90
2022-11-11T19:01:55.344Z,6.01
2022-11-11T19:04:23.293Z,6.03
2022-11-11T19:06:51.138Z,5.99
2022-11-11T19:09:18.875Z,5.96
2022-11-11T19:11:48.410Z,5.96
2022-11-11T19:14:22.386Z,5.96
2022-11-11T19:16:50.656Z,5.91
2022-11-11T19:19:18.990Z,5.85
2022-11-11T19:21:47.147Z,5.78
2022-11-11T19:24:15.284Z,5.85
2022-11-11T19:26:43.715Z,5.63
2022-11-11T19:29:12.787Z,5.71
2022-11-11T19:31:40.448Z,5.81
2022-11-11T19:34:08.140Z,5.86
2022-11-11T19:36:36.619Z,5.89
2022-11-11T19:39:04.953Z,5.75
2022-11-11T19:41:32.974Z,5.69
2022-11-11T19:44:00.720Z,5.70
2022-11-11T19:46:31.104Z,5.76
2022-11-11T19:48:59.758Z,5.72
2022-11-11T19:51:28.344Z,5.64
2022-11-11T19:53:57.378Z,5.75
2022-11-11T19:56:26.522Z,5.79
2022-11-11T19:58:54.137Z,5.80
2022-11-11T20:01:23.701Z,5.75
2022-11-11T20:03:53.330Z,5.84
2022-11-11T20:06:23.187Z,5.81
2022-11-11T20:08:51.108Z,5.70
2022-11-11T20:11:18.817Z,5.82
2022-11-11T20:13:46.503Z,5.77
2022-11-11T20:16:14.644Z,5.74
2022-11-11T20:18:42.346Z,5.76
2022-11-11T20:21:12.242Z,5.78
2022-11-11T20:23:41.101Z,5.74
2022-11-11T20:26:10.536Z,5.81
2022-11-11T20:28:38.615Z,5.75
2022-11-11T20:31:07.517Z,5.80
2022-11-11T20:33:35.231Z,5.86
2022-11-11T20:36:03.625Z,5.85
2022-11-11T20:38:32.644Z,5.77
2022-11-11T20:41:00.501Z,5.78
2022-11-11T20:43:29.834Z,5.80
2022-11-11T20:46:01.822Z,5.88
2022-11-11T20:48:29.575Z,5.84
2022-11-11T20:51:03.645Z,5.85
2022-11-11T20:53:32.661Z,5.66
2022-11-11T20:56:04.475Z,5.61
2022-11-11T20:58:33.601Z,5.55
2022-11-11T21:01:04.960Z,5.69
2022-11-11T21:03:32.548Z,5.73
2022-11-11T21:06:04.425Z,5.75
2022-11-11T21:08:33.680Z,5.73
2022-11-11T21:11:01.939Z,5.78
2022-11-11T21:13:30.005Z,5.71
2022-11-11T21:16:04.262Z,5.75
2022-11-11T21:18:31.968Z,5.77
2022-11-11T21:21:06.152Z,5.71
2022-11-11T21:23:35.347Z,5.72
2022-11-11T21:26:04.164Z,5.62
2022-11-11T21:28:33.734Z,5.59
2022-11-11T21:31:02.250Z,5.63
2022-11-11T21:33:29.868Z,5.65
2022-11-11T21:36:02.794Z,5.57
2022-11-11T21:38:30.574Z,5.52
2022-11-11T21:41:07.512Z,5.43
2022-11-11T21:43:35.622Z,5.46
2022-11-11T21:46:04.510Z,5.36
2022-11-11T21:48:33.418Z,5.35
2022-11-11T21:51:06.567Z,5.50
2022-11-11T21:53:34.517Z,5.47
2022-11-11T21:56:03.256Z,5.33
2022-11-11T21:58:32.532Z,5.34
2022-11-11T22:01:07.681Z,5.31
2022-11-11T22:03:36.059Z,5.24
2022-11-11T22:06:07.851Z,5.33
2022-11-11T22:08:36.705Z,5.32
2022-11-11T22:11:05.739Z,5.34
2022-11-11T22:13:35.197Z,5.23
2022-11-11T22:16:04.756Z,5.23
2022-11-11T22:18:32.604Z,5.27
2022-11-11T22:21:05.505Z,5.27
2022-11-11T22:23:33.180Z,5.33
2022-11-11T22:26:01.752Z,5.23
2022-11-11T22:28:29.690Z,5.23
2022-11-11T22:31:06.668Z,5.33
2022-11-11T22:33:34.223Z,5.27
2022-11-11T22:36:02.546Z,5.25
2022-11-11T22:38:30.376Z,5.29
2022-11-11T22:41:01.939Z,5.21
2022-11-11T22:43:58.088Z,5.13
2022-11-11T22:46:20.376Z,5.00
2022-11-11T22:48:50.579Z,4.96
2022-11-11T22:51:18.977Z,4.97
2022-11-11T22:53:47.022Z,4.90
2022-11-11T22:56:16.496Z,4.92
2022-11-11T22:58:45.673Z,4.91
2022-11-11T23:01:14.470Z,4.96
2022-11-11T23:03:44.997Z,4.93
2022-11-11T23:06:14.120Z,4.90
2022-11-11T23:08:42.031Z,4.83
2022-11-11T23:11:12.943Z,4.92
2022-11-11T23:13:42.035Z,4.84
2022-11-11T23:16:10.732Z,4.91
2022-11-11T23:18:38.332Z,4.95
2022-11-11T23:21:08.811Z,4.91
2022-11-11T23:23:37.466Z,4.90
2022-11-11T23:26:06.326Z,5.02
2022-11-11T23:28:34.188Z,4.81
2022-11-11T23:31:02.736Z,4.94
2022-11-11T23:33:33.866Z,4.85
2022-11-11T23:36:02.038Z,4.83
2022-11-11T23:38:31.021Z,4.89
2022-11-11T23:40:58.696Z,4.89
2022-11-11T23:43:26.756Z,4.81
2022-11-11T23:45:57.571Z,4.89
2022-11-11T23:48:27.381Z,4.93
2022-11-11T23:50:55.501Z,4.89
2022-11-11T23:53:23.504Z,4.73
2022-11-11T23:55:52.583Z,4.70
2022-11-11T23:58:20.153Z,4.83
